Terminal Aerodrome Forecast
Issued by NWS Sterling, VA

Home | Current Version | Previous Version | Text Only | Print | Product List | Glossary On
Versions: 1 2 3 4 5 6 7 8 9 10 11 12 13 14 15
000
FTUS41 KLWX 031135
TAFMRB
TAF
KMRB 031135Z 0312/0412 00000KT 2SM BR SKC
     FM031300 VRB04KT 5SM BR SKC
     FM031400 32005KT P6SM SCT060
     FM031900 31005KT P6SM VCTS BKN060CB
     FM040000 33004KT P6SM BKN060
     FM040600 32004KT 5SM BR BKN070=

USA.gov is the U.S. government's official web portal to all federal, state and local government web resources and services.